Time;durP1;ratioP1;P1;durP2;ratioP2;P2;SDS_P1;SDS_P2;PMS_P1;PMS_P2;Temp;Humidity;BMP_temperature;BMP_pressure;BME280_temperature;BME280_humidity;BME280_pressure;Samples;Min_cycle;Max_cycle;Signal;HPM_P1;HPM_P2
2023/05/30 00:00:24;;;;;;;6.87;5.47;;;14.30;69.60;;;;;;6314580;27;20186;-61
2023/05/30 00:03:25;;;;;;;12.30;6.47;;;14.20;69.90;;;;;;6338091;27;20273;-61
2023/05/30 00:06:27;;;;;;;9.03;5.73;;;14.20;70.50;;;;;;6316123;27;20203;-61
2023/05/30 00:09:27;;;;;;;8.10;6.30;;;14.20;69.70;;;;;;6309140;27;21133;-61
2023/05/30 00:12:28;;;;;;;8.70;6.03;;;14.20;69.60;;;;;;6324115;27;20187;-61
2023/05/30 00:15:30;;;;;;;9.37;6.47;;;14.10;69.70;;;;;;6306489;27;20219;-61
2023/05/30 00:18:34;;;;;;;8.87;7.07;;;14.10;70.40;;;;;;6319475;27;20184;-61
2023/05/30 00:21:35;;;;;;;7.97;6.30;;;14.10;70.50;;;;;;6311543;27;20195;-61
2023/05/30 00:24:36;;;;;;;9.80;6.37;;;14.10;70.40;;;;;;6330180;28;20314;-61
2023/05/30 00:27:37;;;;;;;7.57;6.00;;;14.00;70.80;;;;;;6321259;27;20182;-61
2023/05/30 00:30:37;;;;;;;7.03;6.30;;;13.90;70.70;;;;;;6326147;27;20235;-61
2023/05/30 00:33:38;;;;;;;8.03;5.53;;;13.90;71.00;;;;;;6332505;28;20187;-61
2023/05/30 00:36:39;;;;;;;7.63;5.40;;;13.90;71.80;;;;;;6324653;27;20183;-61
2023/05/30 00:39:41;;;;;;;7.20;5.77;;;13.90;71.70;;;;;;6314877;27;20188;-61
2023/05/30 00:42:41;;;;;;;8.07;5.80;;;13.90;71.30;;;;;;6302155;27;20193;-61
2023/05/30 00:45:42;;;;;;;9.00;6.40;;;13.90;71.50;;;;;;6301580;27;20298;-61
2023/05/30 00:48:43;;;;;;;9.00;5.60;;;13.90;71.70;;;;;;6324021;27;20266;-61
2023/05/30 00:51:44;;;;;;;9.53;5.80;;;13.80;71.60;;;;;;6335923;27;20207;-61
2023/05/30 00:54:46;;;;;;;7.57;5.73;;;13.80;71.60;;;;;;6333294;28;20191;-61
2023/05/30 00:57:47;;;;;;;7.87;5.90;;;13.80;71.30;;;;;;6349606;27;20218;-61
2023/05/30 01:00:48;;;;;;;6.57;5.80;;;13.70;71.40;;;;;;6329679;27;20195;-61
2023/05/30 01:03:50;;;;;;;7.43;6.03;;;13.70;71.90;;;;;;6330750;27;20196;-61
2023/05/30 01:06:51;;;;;;;7.07;5.37;;;13.70;71.90;;;;;;6352170;27;20208;-61
2023/05/30 01:09:52;;;;;;;8.47;4.90;;;13.60;71.70;;;;;;6345472;27;20191;-61
2023/05/30 01:13:22;;;;;;;8.33;5.83;;;13.60;71.70;;;;;;6311384;27;20179;-61
2023/05/30 01:16:26;;;;;;;10.43;6.03;;;13.60;72.00;;;;;;6347896;27;20191;-61
2023/05/30 01:19:32;;;;;;;6.33;5.67;;;13.50;72.30;;;;;;6345935;28;20191;-61
2023/05/30 01:23:00;;;;;;;10.13;6.13;;;13.50;72.20;;;;;;6336358;27;20211;-61
2023/05/30 01:26:31;;;;;;;6.70;5.73;;;13.50;72.50;;;;;;6347547;28;20218;-61
2023/05/30 01:29:35;;;;;;;9.63;6.73;;;13.40;72.40;;;;;;6344599;28;20231;-61
2023/05/30 01:32:37;;;;;;;7.97;6.20;;;13.30;72.90;;;;;;6336833;28;20244;-61
2023/05/30 01:35:37;;;;;;;7.93;5.90;;;13.30;72.80;;;;;;6348008;27;20191;-61
2023/05/30 01:38:38;;;;;;;8.50;5.57;;;13.30;72.60;;;;;;6305381;27;20198;-61
2023/05/30 01:42:13;;;;;;;8.20;6.27;;;13.30;72.90;;;;;;6347998;27;20271;-61
2023/05/30 01:45:26;;;;;;;7.47;5.60;;;13.30;72.50;;;;;;6345527;27;20207;-61
2023/05/30 01:49:12;;;;;;;8.33;5.77;;;13.30;72.30;;;;;;6351845;27;20184;-61
2023/05/30 01:52:17;;;;;;;8.50;5.63;;;13.30;72.30;;;;;;6350806;27;20188;-61
2023/05/30 01:55:20;;;;;;;7.30;5.90;;;13.30;72.30;;;;;;6332197;28;20236;-61
2023/05/30 01:58:23;;;;;;;7.93;5.37;;;13.30;72.90;;;;;;6317700;28;20196;-61
2023/05/30 02:01:27;;;;;;;8.03;5.87;;;13.30;72.80;;;;;;6356118;27;20198;-61
2023/05/30 02:04:27;;;;;;;7.00;5.93;;;13.30;72.80;;;;;;6355617;27;20197;-61
2023/05/30 02:07:28;;;;;;;8.17;5.77;;;13.20;72.40;;;;;;6324818;28;20191;-61
2023/05/30 02:10:29;;;;;;;10.37;8.07;;;13.10;72.50;;;;;;6331928;27;20321;-61
2023/05/30 02:13:30;;;;;;;9.60;7.07;;;13.10;72.80;;;;;;6306874;27;20199;-61
2023/05/30 02:16:31;;;;;;;8.13;5.97;;;13.10;73.00;;;;;;6324788;27;20188;-61
2023/05/30 02:19:31;;;;;;;7.13;5.63;;;13.00;73.20;;;;;;6338539;27;20192;-61
2023/05/30 02:22:32;;;;;;;9.10;5.83;;;12.90;73.00;;;;;;6330535;27;20239;-61
2023/05/30 02:25:33;;;;;;;7.77;6.03;;;12.90;73.00;;;;;;6311380;27;20216;-61
2023/05/30 02:28:33;;;;;;;8.00;6.37;;;12.90;73.20;;;;;;6304555;27;20239;-61
2023/05/30 02:31:34;;;;;;;8.47;6.20;;;12.90;73.60;;;;;;6329840;28;20191;-61
2023/05/30 02:34:35;;;;;;;9.63;6.17;;;12.90;73.40;;;;;;6324641;27;20187;-61
2023/05/30 02:37:35;;;;;;;6.23;4.93;;;12.90;73.90;;;;;;6316220;27;20215;-61
2023/05/30 02:40:36;;;;;;;7.80;5.80;;;12.90;73.40;;;;;;6309182;27;20232;-61
2023/05/30 02:43:39;;;;;;;7.00;5.67;;;12.80;73.80;;;;;;6310434;27;20191;-61
2023/05/30 02:46:39;;;;;;;9.43;5.20;;;12.80;73.80;;;;;;6340308;27;20210;-61
2023/05/30 02:49:40;;;;;;;8.03;6.20;;;12.70;73.90;;;;;;6312732;27;20273;-61
2023/05/30 02:52:41;;;;;;;7.17;5.63;;;12.70;74.10;;;;;;6314287;28;20287;-61
2023/05/30 02:55:42;;;;;;;8.00;6.10;;;12.70;74.20;;;;;;6310606;28;20222;-61
2023/05/30 02:58:43;;;;;;;8.73;6.10;;;12.70;74.00;;;;;;6302165;28;20190;-61
2023/05/30 03:01:43;;;;;;;6.13;5.50;;;12.50;74.50;;;;;;6317368;28;20190;-61
2023/05/30 03:04:45;;;;;;;7.70;5.80;;;12.50;74.30;;;;;;6312243;28;20344;-61
2023/05/30 03:07:46;;;;;;;7.63;5.33;;;12.50;74.20;;;;;;6350085;28;20252;-61
2023/05/30 03:10:46;;;;;;;7.40;5.60;;;12.50;74.90;;;;;;6324137;27;20214;-61
2023/05/30 03:13:47;;;;;;;9.83;6.80;;;12.50;74.50;;;;;;6301548;27;20215;-61
2023/05/30 03:16:48;;;;;;;7.47;5.93;;;;;;;;;;6310242;27;20282;-61
2023/05/30 03:19:49;;;;;;;7.60;5.60;;;;;;;;;;6320152;27;20202;-61
2023/05/30 03:22:50;;;;;;;7.57;5.37;;;12.50;74.70;;;;;;6328467;27;20192;-61
2023/05/30 03:25:50;;;;;;;10.23;6.07;;;24.00;50.00;;;;;;6302431;28;20207;-61
2023/05/30 03:28:51;;;;;;;8.97;6.53;;;12.50;75.10;;;;;;6322847;27;20238;-61
2023/05/30 03:31:52;;;;;;;9.23;6.10;;;12.50;75.10;;;;;;6304882;27;20215;-60
2023/05/30 03:34:53;;;;;;;8.70;5.87;;;12.50;74.80;;;;;;6320600;27;20198;-60
2023/05/30 03:37:54;;;;;;;9.40;5.97;;;12.50;75.00;;;;;;6313304;27;20186;-60
2023/05/30 03:40:54;;;;;;;7.77;5.73;;;12.50;74.90;;;;;;6308154;28;20184;-60
2023/05/30 03:43:55;;;;;;;10.77;5.93;;;12.50;75.10;;;;;;6310779;27;20191;-60
2023/05/30 03:46:56;;;;;;;9.63;6.10;;;12.50;74.90;;;;;;6308354;27;20203;-60
2023/05/30 03:49:57;;;;;;;8.23;6.07;;;12.50;74.90;;;;;;6307622;27;20248;-60
2023/05/30 03:52:57;;;;;;;6.53;5.63;;;12.50;75.00;;;;;;6309921;27;20194;-60
2023/05/30 03:55:58;;;;;;;6.93;5.93;;;12.60;74.70;;;;;;6308021;27;20196;-60
2023/05/30 03:58:59;;;;;;;7.93;6.10;;;12.50;74.80;;;;;;6315012;27;20200;-60
2023/05/30 04:02:00;;;;;;;7.23;5.27;;;12.50;75.10;;;;;;6308463;27;20185;-60
2023/05/30 04:05:00;;;;;;;8.83;5.67;;;12.50;75.20;;;;;;6308617;27;20211;-60
2023/05/30 04:08:01;;;;;;;7.73;5.53;;;12.60;75.50;;;;;;6301493;27;20177;-59
2023/05/30 04:11:02;;;;;;;7.93;6.03;;;12.70;75.00;;;;;;6348107;27;20182;-59
2023/05/30 04:14:03;;;;;;;7.63;4.97;;;12.70;75.50;;;;;;6330609;27;20270;-59
2023/05/30 04:17:04;;;;;;;7.00;5.60;;;12.70;75.10;;;;;;6324312;28;20199;-60
2023/05/30 04:20:08;;;;;;;6.57;5.73;;;12.70;75.30;;;;;;6333927;28;20187;-59
2023/05/30 04:23:09;;;;;;;8.87;5.80;;;12.70;75.90;;;;;;6335178;27;20192;-60
2023/05/30 04:26:10;;;;;;;7.07;5.53;;;12.70;75.50;;;;;;6321170;27;20222;-60
2023/05/30 04:29:11;;;;;;;7.73;5.83;;;12.70;75.80;;;;;;6324311;28;20232;-60
2023/05/30 04:32:12;;;;;;;8.30;5.67;;;12.70;75.50;;;;;;6308420;28;20187;-60
2023/05/30 04:35:13;;;;;;;8.47;5.93;;;12.80;75.90;;;;;;6314786;28;20194;-60
2023/05/30 04:38:20;;;;;;;6.83;5.30;;;12.80;76.00;;;;;;6327538;28;20192;-60
2023/05/30 04:41:24;;;;;;;10.37;6.63;;;24.00;50.00;;;;;;6308825;28;20238;-60
2023/05/30 04:44:25;;;;;;;8.90;6.03;;;13.00;75.00;;;;;;6308355;28;20195;-60
2023/05/30 04:47:28;;;;;;;8.43;6.03;;;13.00;75.10;;;;;;6298114;28;20192;-60
2023/05/30 04:50:29;;;;;;;7.10;5.97;;;13.10;75.40;;;;;;6319809;28;20185;-60
2023/05/30 04:53:30;;;;;;;6.90;5.77;;;13.10;74.60;;;;;;6320991;28;20191;-61
2023/05/30 04:56:30;;;;;;;8.10;5.47;;;13.20;74.50;;;;;;6312241;28;20208;-59
2023/05/30 04:59:31;;;;;;;7.90;5.30;;;13.30;74.70;;;;;;6327251;28;20257;-60
2023/05/30 05:02:33;;;;;;;7.90;5.47;;;13.30;75.10;;;;;;6302661;28;20180;-60
2023/05/30 05:05:34;;;;;;;7.33;5.47;;;13.30;74.80;;;;;;6304859;28;20300;-61
2023/05/30 05:08:37;;;;;;;9.63;5.43;;;;;;;;;;6296523;28;20188;-62
2023/05/30 05:11:38;;;;;;;9.30;5.80;;;;;;;;;;6327859;28;20189;-61
2023/05/30 05:14:42;;;;;;;6.13;5.47;;;;;;;;;;6308100;28;20200;-60
2023/05/30 05:17:44;;;;;;;6.60;5.30;;;;;;;;;;6323163;28;20191;-61
2023/05/30 05:20:45;;;;;;;10.37;6.00;;;;;;;;;;6334378;28;20195;-61
2023/05/30 05:23:46;;;;;;;7.87;6.17;;;;;;;;;;6321313;28;20196;-61
2023/05/30 05:26:47;;;;;;;7.37;5.33;;;;;;;;;;6325899;28;20218;-61
2023/05/30 05:29:48;;;;;;;10.03;5.60;;;;;;;;;;6315817;28;20245;-61
2023/05/30 05:32:50;;;;;;;7.67;5.87;;;;;;;;;;6312078;27;20233;-60
2023/05/30 05:35:51;;;;;;;9.17;5.87;;;;;;;;;;6326312;28;20191;-60
2023/05/30 05:38:52;;;;;;;7.37;5.57;;;;;;;;;;6315430;28;20237;-60
2023/05/30 05:41:53;;;;;;;8.27;6.17;;;;;;;;;;6315692;28;20187;-60
2023/05/30 05:44:55;;;;;;;9.27;5.80;;;;;;;;;;6322755;28;20235;-60
2023/05/30 05:47:56;;;;;;;8.63;6.53;;;;;;;;;;6309755;28;20200;-60
2023/05/30 05:50:57;;;;;;;6.60;5.47;;;;;;;;;;6320088;28;20214;-61
2023/05/30 05:53:58;;;;;;;7.30;5.57;;;13.90;74.30;;;;;;6322099;28;20441;-61
2023/05/30 05:56:59;;;;;;;7.40;5.03;;;14.20;74.20;;;;;;6302840;28;20196;-59
2023/05/30 05:59:59;;;;;;;5.87;5.13;;;14.10;75.10;;;;;;6293714;28;20210;-60
2023/05/30 06:03:00;;;;;;;6.57;5.30;;;14.10;74.70;;;;;;6307046;28;20219;-60
2023/05/30 06:06:01;;;;;;;7.80;6.37;;;14.20;74.90;;;;;;6330246;27;20219;-60
2023/05/30 06:09:02;;;;;;;6.70;5.30;;;14.20;75.00;;;;;;6310401;28;20272;-59
2023/05/30 06:12:03;;;;;;;8.03;5.13;;;14.30;74.50;;;;;;6326230;27;20196;-60
2023/05/30 06:15:05;;;;;;;8.23;5.80;;;14.30;75.20;;;;;;6326659;28;20197;-59
2023/05/30 06:18:06;;;;;;;9.03;5.83;;;14.40;75.20;;;;;;6329071;28;20229;-60
2023/05/30 06:21:10;;;;;;;7.17;6.00;;;14.40;74.50;;;;;;6329148;28;20196;-60
2023/05/30 06:24:10;;;;;;;9.07;6.50;;;14.50;74.60;;;;;;6308178;28;20292;-60
2023/05/30 06:27:11;;;;;;;8.53;5.70;;;14.60;75.00;;;;;;6308799;28;20207;-60
2023/05/30 06:30:12;;;;;;;10.67;5.43;;;14.70;74.70;;;;;;6314518;28;20232;-60
2023/05/30 06:33:12;;;;;;;6.30;5.50;;;14.70;75.30;;;;;;6306255;28;20601;-60
2023/05/30 06:36:13;;;;;;;7.23;5.33;;;14.80;74.80;;;;;;6299738;28;20204;-61
2023/05/30 06:39:15;;;;;;;7.93;5.17;;;24.00;50.00;;;;;;6323586;28;20213;-61
2023/05/30 06:42:16;;;;;;;8.40;5.80;;;15.00;73.90;;;;;;6303893;28;20253;-62
2023/05/30 06:45:16;;;;;;;6.83;5.70;;;15.00;73.80;;;;;;6314357;28;20223;-62
2023/05/30 06:48:17;;;;;;;7.77;5.40;;;15.10;73.50;;;;;;6304412;28;20214;-63
2023/05/30 06:51:18;;;;;;;6.83;5.53;;;15.20;72.80;;;;;;6317129;28;20199;-61
2023/05/30 06:54:18;;;;;;;7.23;5.33;;;15.40;70.70;;;;;;6304349;28;20232;-63
2023/05/30 06:57:19;;;;;;;10.47;5.10;;;15.50;70.20;;;;;;6313440;28;20306;-61
2023/05/30 07:00:20;;;;;;;9.43;4.90;;;15.90;65.80;;;;;;6311587;28;20201;-59
2023/05/30 07:03:21;;;;;;;9.30;5.40;;;16.00;64.80;;;;;;6310830;28;20188;-60
2023/05/30 07:06:22;;;;;;;6.17;4.80;;;;;;;;;;6312015;28;20260;-59
2023/05/30 07:09:23;;;;;;;6.73;4.83;;;16.20;63.30;;;;;;6333899;27;20191;-59
2023/05/30 07:12:24;;;;;;;6.97;5.00;;;;;;;;;;6310220;28;20267;-59
2023/05/30 07:15:25;;;;;;;6.37;4.30;;;17.00;61.50;;;;;;6319806;28;20188;-59
2023/05/30 07:18:26;;;;;;;7.87;5.10;;;16.80;61.00;;;;;;6310603;28;20188;-60
2023/05/30 07:21:28;;;;;;;7.50;4.93;;;16.90;60.70;;;;;;6298438;28;20188;-60
2023/05/30 07:24:28;;;;;;;6.77;4.43;;;17.10;59.40;;;;;;6315053;28;20192;-59
2023/05/30 07:27:29;;;;;;;7.07;4.73;;;17.20;59.40;;;;;;6317760;28;20215;-59
2023/05/30 07:30:30;;;;;;;6.67;4.70;;;24.00;50.00;;;;;;6317189;28;20312;-59
2023/05/30 07:33:31;;;;;;;6.13;4.13;;;17.70;56.80;;;;;;6310091;28;20189;-60
2023/05/30 07:36:32;;;;;;;5.93;4.20;;;;;;;;;;6333244;28;20290;-58
2023/05/30 07:39:32;;;;;;;6.33;4.10;;;18.30;55.20;;;;;;6329905;27;20180;-58
2023/05/30 07:42:36;;;;;;;7.40;4.67;;;18.20;55.30;;;;;;6311218;28;20245;-58
2023/05/30 07:45:37;;;;;;;6.93;4.00;;;18.30;53.60;;;;;;6329625;28;20208;-58
2023/05/30 07:48:37;;;;;;;8.80;3.97;;;18.40;54.10;;;;;;6308791;28;20223;-58
2023/05/30 07:51:38;;;;;;;5.67;3.70;;;18.50;53.50;;;;;;6314736;28;20191;-58
2023/05/30 07:54:39;;;;;;;4.20;3.80;;;18.70;52.20;;;;;;6313071;28;20188;-58
2023/05/30 07:57:40;;;;;;;5.57;4.17;;;18.80;52.00;;;;;;6308404;28;20225;-57
2023/05/30 08:00:40;;;;;;;6.83;4.23;;;18.90;53.10;;;;;;6308664;28;20191;-58
2023/05/30 08:03:41;;;;;;;6.97;4.23;;;19.00;53.20;;;;;;6308659;28;20194;-58
2023/05/30 08:06:42;;;;;;;6.63;4.53;;;19.00;52.30;;;;;;6313592;28;20291;-59
2023/05/30 08:09:42;;;;;;;5.57;3.57;;;19.20;50.30;;;;;;6324134;28;20192;-56
2023/05/30 08:12:43;;;;;;;5.57;3.73;;;19.40;49.80;;;;;;6316662;28;20265;-58
2023/05/30 08:15:44;;;;;;;4.30;3.90;;;19.30;51.00;;;;;;6315911;28;20184;-57
2023/05/30 08:18:45;;;;;;;4.80;3.60;;;19.40;50.30;;;;;;6326602;28;20188;-57
2023/05/30 08:21:47;;;;;;;4.93;3.67;;;19.40;49.40;;;;;;6321955;28;20199;-57
2023/05/30 08:24:50;;;;;;;7.00;3.97;;;19.40;50.50;;;;;;6311353;28;20203;-58
2023/05/30 08:27:53;;;;;;;4.93;3.80;;;19.40;51.10;;;;;;6325478;28;20184;-57
2023/05/30 08:30:53;;;;;;;6.80;4.20;;;19.40;51.10;;;;;;6305978;28;20302;-56
2023/05/30 08:33:54;;;;;;;8.43;4.27;;;19.50;49.30;;;;;;6316540;28;20189;-57
2023/05/30 08:36:55;;;;;;;4.70;4.03;;;19.50;49.30;;;;;;6312924;28;20191;-58
2023/05/30 08:39:56;;;;;;;8.43;4.60;;;19.60;48.90;;;;;;6302017;28;20242;-58
2023/05/30 08:42:56;;;;;;;6.77;4.17;;;19.60;49.10;;;;;;6311682;28;20193;-57
2023/05/30 08:45:57;;;;;;;6.33;3.83;;;19.60;50.50;;;;;;6309771;28;20313;-58
2023/05/30 08:48:58;;;;;;;4.57;3.90;;;19.70;51.50;;;;;;6299145;28;20193;-58
2023/05/30 08:52:02;;;;;;;6.07;4.07;;;19.80;50.90;;;;;;6305620;28;20241;-58
2023/05/30 08:55:15;;;;;;;3.90;3.20;;;19.90;50.40;;;;;;6324673;27;20185;-58
2023/05/30 08:58:20;;;;;;;3.50;3.17;;;20.00;49.30;;;;;;6351747;27;20261;-58
2023/05/30 09:01:22;;;;;;;3.73;3.10;;;;;;;;;;6326769;28;20185;-58
2023/05/30 09:04:23;;;;;;;5.60;3.33;;;;;;;;;;6328043;28;20256;-57
2023/05/30 09:07:25;;;;;;;7.63;3.80;;;;;;;;;;6329469;28;20199;-57
2023/05/30 09:10:26;;;;;;;3.83;3.30;;;;;;;;;;6325487;28;20204;-57
2023/05/30 09:13:27;;;;;;;4.67;3.60;;;;;;;;;;6316575;28;20274;-58
2023/05/30 09:16:28;;;;;;;5.60;3.67;;;;;;;;;;6330015;28;20195;-58
2023/05/30 09:19:29;;;;;;;4.50;3.50;;;;;;;;;;6317003;28;20222;-57
2023/05/30 09:22:31;;;;;;;4.00;3.50;;;;;;;;;;6331051;28;20191;-57
2023/05/30 09:25:46;;;;;;;6.03;3.50;;;;;;;;;;6311455;28;20212;-56
2023/05/30 09:28:48;;;;;;;4.80;3.60;;;;;;;;;;6334930;28;20231;-58
2023/05/30 09:31:49;;;;;;;5.50;3.40;;;;;;;;;;6342941;27;20196;-58
2023/05/30 09:34:55;;;;;;;4.03;3.63;;;;;;;;;;6343182;27;20228;-58
2023/05/30 09:37:56;;;;;;;5.30;3.30;;;;;;;;;;6345872;27;20323;-58
2023/05/30 09:41:01;;;;;;;5.40;3.67;;;;;;;;;;6333565;27;20201;-58
2023/05/30 09:44:05;;;;;;;4.87;3.70;;;;;;;;;;6349585;27;20194;-58
2023/05/30 09:47:11;;;;;;;5.53;3.43;;;;;;;;;;6337493;27;20272;-58
2023/05/30 09:50:13;;;;;;;7.87;3.50;;;;;;;;;;6344143;27;20205;-58
2023/05/30 09:53:14;;;;;;;3.83;3.30;;;;;;;;;;6348753;27;20197;-58
2023/05/30 09:56:15;;;;;;;3.93;3.17;;;;;;;;;;6328378;27;20259;-57
2023/05/30 09:59:16;;;;;;;5.87;3.10;;;;;;;;;;6337142;27;20196;-57
2023/05/30 10:02:23;;;;;;;3.47;3.17;;;;;;;;;;6318216;27;20190;-57
2023/05/30 10:05:28;;;;;;;4.97;3.47;;;;;;;;;;6341503;27;20215;-58
2023/05/30 10:08:30;;;;;;;4.53;3.77;;;;;;;;;;6343232;27;20196;-58
2023/05/30 10:11:31;;;;;;;4.90;3.60;;;;;;;;;;6318716;27;20192;-57
2023/05/30 10:14:33;;;;;;;5.53;4.00;;;;;;;;;;6334069;27;20301;-57
2023/05/30 10:17:35;;;;;;;3.57;3.23;;;;;;;;;;6330999;27;20249;-57
2023/05/30 10:20:37;;;;;;;5.63;3.50;;;;;;;;;;6322780;27;20191;-58
2023/05/30 10:23:40;;;;;;;4.10;3.60;;;;;;;;;;6333668;27;20191;-58
2023/05/30 10:26:47;;;;;;;4.67;3.53;;;;;;;;;;6342373;27;20252;-58
2023/05/30 10:29:49;;;;;;;7.10;4.23;;;;;;;;;;6346697;27;20234;-58
2023/05/30 10:33:09;;;;;;;4.93;3.80;;;;;;;;;;6340301;27;20201;-58
2023/05/30 10:36:10;;;;;;;6.27;3.63;;;;;;;;;;6332624;28;20227;-58
2023/05/30 10:39:41;;;;;;;5.17;3.67;;;;;;;;;;6335682;27;20215;-58
2023/05/30 10:42:48;;;;;;;4.30;3.43;;;;;;;;;;6319479;27;20192;-58
2023/05/30 10:45:58;;;;;;;4.47;3.33;;;;;;;;;;6330930;28;20234;-58
2023/05/30 10:49:01;;;;;;;4.00;3.53;;;;;;;;;;6336132;28;20243;-57
2023/05/30 10:52:03;;;;;;;5.07;3.50;;;;;;;;;;6325252;28;20198;-57
2023/05/30 10:55:09;;;;;;;6.00;4.00;;;;;;;;;;6332791;28;20198;-57
2023/05/30 10:58:30;;;;;;;5.50;3.93;;;;;;;;;;6348573;27;20211;-56
2023/05/30 11:01:32;;;;;;;4.10;3.50;;;;;;;;;;6339642;28;20192;-57
2023/05/30 11:04:38;;;;;;;5.33;3.80;;;;;;;;;;6313825;28;20199;-56
2023/05/30 11:07:40;;;;;;;6.50;3.93;;;;;;;;;;6343593;27;20281;-57
2023/05/30 11:10:41;;;;;;;4.20;3.80;;;;;;;;;;6335744;27;20186;-57
2023/05/30 11:13:51;;;;;;;4.63;3.87;;;;;;;;;;6323445;28;20247;-58
2023/05/30 11:16:57;;;;;;;3.50;3.20;;;;;;;;;;6330672;27;20195;-58
2023/05/30 11:20:13;;;;;;;4.33;3.70;;;;;;;;;;6337108;27;20183;-58
2023/05/30 11:23:14;;;;;;;4.60;4.00;;;;;;;;;;6335356;28;20199;-57
2023/05/30 11:26:18;;;;;;;4.03;3.43;;;;;;;;;;6352212;27;20206;-58
2023/05/30 11:29:29;;;;;;;6.03;3.90;;;;;;;;;;6342375;28;20649;-59
2023/05/30 11:32:30;;;;;;;4.87;3.90;;;;;;;;;;6319310;28;20189;-58
2023/05/30 11:35:31;;;;;;;6.00;4.07;;;;;;;;;;6334803;28;20195;-59
2023/05/30 11:38:32;;;;;;;4.67;3.67;;;;;;;;;;6330754;28;20196;-59
2023/05/30 11:41:33;;;;;;;4.23;3.57;;;;;;;;;;6342755;27;20194;-58
2023/05/30 11:44:35;;;;;;;4.40;3.67;;;;;;;;;;6340544;27;20209;-58
2023/05/30 11:47:36;;;;;;;4.07;3.57;;;;;;;;;;6333874;27;20226;-58
2023/05/30 11:50:41;;;;;;;6.90;3.67;;;;;;;;;;6329550;27;20192;-58
2023/05/30 11:53:44;;;;;;;5.53;3.47;;;;;;;;;;6335443;27;20180;-58
2023/05/30 11:56:47;;;;;;;7.63;4.57;;;;;;;;;;6340601;27;20188;-58
2023/05/30 11:59:49;;;;;;;4.03;3.63;;;;;;;;;;6342729;27;20191;-58
2023/05/30 12:02:52;;;;;;;4.67;3.83;;;;;;;;;;6342220;27;20180;-57
2023/05/30 12:05:54;;;;;;;6.07;3.90;;;;;;;;;;6340271;27;20283;-57
2023/05/30 12:08:55;;;;;;;4.00;3.60;;;29.80;33.20;;;;;;6323083;27;20191;-58
2023/05/30 12:12:00;;;;;;;3.77;3.37;;;29.40;33.10;;;;;;6307575;27;20210;-58
2023/05/30 12:15:03;;;;;;;4.07;3.67;;;28.90;35.70;;;;;;6345045;27;20187;-58
2023/05/30 12:18:04;;;;;;;4.07;3.37;;;28.60;36.30;;;;;;6341432;27;20271;-58
2023/05/30 12:21:06;;;;;;;4.00;3.53;;;;;;;;;;6345159;28;20191;-58
2023/05/30 12:24:09;;;;;;;6.47;3.30;;;;;;;;;;6338121;27;20213;-58
2023/05/30 12:27:17;;;;;;;5.97;3.60;;;;;;;;;;6326543;28;20212;-58
2023/05/30 12:30:18;;;;;;;4.37;3.97;;;;;;;;;;6328803;27;20230;-58
2023/05/30 12:33:21;;;;;;;4.90;3.97;;;27.90;35.40;;;;;;6336085;27;20183;-58
2023/05/30 12:36:23;;;;;;;4.53;3.90;;;25.50;41.20;;;;;;6330488;27;20199;-58
2023/05/30 12:39:24;;;;;;;4.17;3.50;;;25.30;40.70;;;;;;6321319;27;20374;-58
2023/05/30 12:42:29;;;;;;;5.27;4.03;;;25.20;42.00;;;;;;6303974;28;20196;-58
2023/05/30 12:45:33;;;;;;;4.13;3.70;;;25.00;41.80;;;;;;6327088;27;20219;-58
2023/05/30 12:48:34;;;;;;;4.60;3.53;;;25.00;41.70;;;;;;6327088;28;20196;-58
2023/05/30 12:51:35;;;;;;;5.23;4.27;;;25.60;39.10;;;;;;6319834;27;20184;-59
2023/05/30 12:54:36;;;;;;;5.23;3.97;;;25.90;40.90;;;;;;6337193;27;20247;-58
2023/05/30 12:57:36;;;;;;;5.30;3.73;;;26.10;41.40;;;;;;6327339;27;20226;-60
2023/05/30 13:00:37;;;;;;;4.67;3.90;;;26.10;39.20;;;;;;6304890;28;20187;-59
2023/05/30 13:03:38;;;;;;;6.67;3.50;;;26.00;40.70;;;;;;6312438;27;20202;-59
2023/05/30 13:06:39;;;;;;;4.27;3.70;;;;;;;;;;6311477;27;20243;-58
2023/05/30 13:09:40;;;;;;;4.13;3.53;;;;;;;;;;6338057;27;20243;-58
2023/05/30 13:12:41;;;;;;;5.13;3.60;;;;;;;;;;6340725;27;20187;-58
2023/05/30 13:15:42;;;;;;;5.07;3.50;;;;;;;;;;6337128;27;20217;-57
2023/05/30 13:18:43;;;;;;;5.20;4.30;;;;;;;;;;6328665;27;20191;-58
2023/05/30 13:21:44;;;;;;;5.10;3.30;;;36.10;30.60;;;;;;6317393;27;20198;-57
2023/05/30 13:24:45;;;;;;;5.63;3.90;;;36.30;30.30;;;;;;6327982;27;20285;-58
2023/05/30 13:27:49;;;;;;;5.93;3.90;;;;;;;;;;6316202;27;20219;-58
2023/05/30 13:30:50;;;;;;;4.73;3.63;;;;;;;;;;6324289;27;20255;-57
2023/05/30 13:33:51;;;;;;;3.83;3.30;;;34.50;31.20;;;;;;6329812;27;20184;-58
2023/05/30 13:36:52;;;;;;;3.83;3.40;;;35.20;29.70;;;;;;6328320;27;20213;-57
2023/05/30 13:39:53;;;;;;;5.65;3.90;;;35.70;30.00;;;;;;6323586;27;20222;-58
2023/05/30 13:42:53;;;;;;;3.92;3.42;;;35.90;29.00;;;;;;6314793;27;20195;-57
2023/05/30 13:45:54;;;;;;;4.00;3.67;;;;;;;;;;6301433;27;20215;-57
2023/05/30 13:48:55;;;;;;;4.50;3.90;;;35.20;29.50;;;;;;6330789;27;20338;-58
2023/05/30 13:51:56;;;;;;;4.60;3.92;;;34.80;30.80;;;;;;6329387;27;20186;-58
2023/05/30 13:54:57;;;;;;;4.82;3.40;;;34.40;31.20;;;;;;6318876;27;20187;-57
2023/05/30 13:57:57;;;;;;;5.00;3.22;;;34.10;31.30;;;;;;6318674;27;20271;-59
2023/05/30 14:00:58;;;;;;;4.30;3.90;;;34.00;31.10;;;;;;6304711;27;20227;-59
2023/05/30 14:03:59;;;;;;;4.33;4.00;;;33.60;31.50;;;;;;6329300;27;20174;-58
2023/05/30 14:07:00;;;;;;;6.63;3.20;;;33.40;31.40;;;;;;6319349;27;20215;-58
2023/05/30 14:10:00;;;;;;;4.87;3.80;;;33.20;31.40;;;;;;6312371;27;20298;-58
2023/05/30 14:13:01;;;;;;;3.97;3.63;;;33.00;32.50;;;;;;6341230;27;20182;-57
2023/05/30 14:16:02;;;;;;;4.40;3.57;;;32.80;32.10;;;;;;6334186;27;20187;-58
2023/05/30 14:19:08;;;;;;;6.00;4.00;;;32.50;32.80;;;;;;6304240;28;20252;-58
2023/05/30 14:22:12;;;;;;;4.67;3.83;;;32.30;32.30;;;;;;6319379;27;20188;-58
2023/05/30 14:25:13;;;;;;;4.43;3.90;;;;;;;;;;6322477;27;20214;-58
2023/05/30 14:28:14;;;;;;;4.30;3.90;;;32.10;31.70;;;;;;6366596;27;20179;-59
2023/05/30 14:31:15;;;;;;;5.90;3.83;;;31.60;32.90;;;;;;6325942;27;20191;-58
2023/05/30 14:34:16;;;;;;;4.57;3.77;;;31.20;34.40;;;;;;6310742;28;20180;-59
2023/05/30 14:37:17;;;;;;;4.10;3.70;;;30.90;34.00;;;;;;6327414;27;20265;-58
2023/05/30 14:40:17;;;;;;;4.30;3.37;;;30.60;35.10;;;;;;6337164;28;20241;-58
2023/05/30 14:43:18;;;;;;;4.97;3.93;;;30.50;34.20;;;;;;6327329;28;20194;-58
2023/05/30 14:46:19;;;;;;;4.30;3.57;;;30.10;35.00;;;;;;6303184;28;20211;-59
2023/05/30 14:49:20;;;;;;;5.87;4.20;;;29.70;35.40;;;;;;6325023;28;20182;-60
2023/05/30 14:52:21;;;;;;;6.73;4.10;;;29.20;35.20;;;;;;6332599;28;20302;-59
2023/05/30 14:55:21;;;;;;;5.17;3.67;;;28.80;36.00;;;;;;6331043;28;20226;-59
2023/05/30 14:58:22;;;;;;;5.30;4.00;;;28.10;35.70;;;;;;6322047;28;20187;-58
2023/05/30 15:01:23;;;;;;;6.57;4.73;;;27.70;37.00;;;;;;6303785;28;20234;-59
2023/05/30 15:04:24;;;;;;;4.73;3.90;;;;;;;;;;6342899;27;20215;-59
2023/05/30 15:07:25;;;;;;;5.07;3.97;;;;;;;;;;6325342;28;20293;-59
2023/05/30 15:10:26;;;;;;;5.33;3.43;;;;;;;;;;6330056;28;20192;-60
2023/05/30 15:13:27;;;;;;;4.33;3.63;;;;;;;;;;6330622;28;20192;-58
2023/05/30 15:16:29;;;;;;;6.03;3.87;;;;;;;;;;6340700;27;20203;-58
2023/05/30 15:19:30;;;;;;;6.57;3.80;;;27.10;37.20;;;;;;6341078;28;20227;-58
2023/05/30 15:22:31;;;;;;;5.03;3.83;;;;;;;;;;6316952;27;20188;-58
2023/05/30 15:25:31;;;;;;;3.70;3.30;;;25.20;40.20;;;;;;6353776;27;20206;-58
2023/05/30 15:28:32;;;;;;;4.43;3.40;;;;;;;;;;6325212;27;20289;-58
2023/05/30 15:31:33;;;;;;;6.33;3.87;;;25.00;41.30;;;;;;6326751;27;20190;-58
2023/05/30 15:34:34;;;;;;;5.50;4.10;;;25.20;41.50;;;;;;6311764;28;20193;-58
2023/05/30 15:37:34;;;;;;;6.30;4.07;;;25.20;41.10;;;;;;6302012;28;20323;-58
2023/05/30 15:40:35;;;;;;;4.10;3.70;;;25.00;42.70;;;;;;6306197;27;20214;-58
2023/05/30 15:43:36;;;;;;;6.57;4.00;;;24.90;43.30;;;;;;6333878;27;20198;-58
2023/05/30 15:46:39;;;;;;;4.43;3.47;;;24.80;42.80;;;;;;6339911;27;20218;-58
2023/05/30 15:49:41;;;;;;;4.30;3.67;;;;;;;;;;6316608;27;20203;-58
2023/05/30 15:52:42;;;;;;;4.50;3.83;;;;;;;;;;6317001;27;20183;-58
2023/05/30 15:55:43;;;;;;;6.23;4.20;;;;;;;;;;6346219;28;20188;-58
2023/05/30 15:58:45;;;;;;;4.73;4.03;;;;;;;;;;6325991;27;20224;-58
2023/05/30 16:01:46;;;;;;;8.00;4.00;;;;;;;;;;6329560;27;20215;-58
2023/05/30 16:04:47;;;;;;;6.63;4.23;;;;;;;;;;6345364;27;20186;-59
2023/05/30 16:07:48;;;;;;;4.73;4.13;;;;;;;;;;6318675;28;20242;-59
2023/05/30 16:10:49;;;;;;;4.90;4.13;;;;;;;;;;6329113;27;20187;-59
2023/05/30 16:13:50;;;;;;;5.87;4.23;;;;;;;;;;6324738;27;20205;-59
2023/05/30 16:16:51;;;;;;;3.80;3.40;;;;;;;;;;6334215;27;20188;-59
2023/05/30 16:19:52;;;;;;;4.23;3.83;;;;;;;;;;6337300;27;20192;-59
2023/05/30 16:22:54;;;;;;;4.83;3.97;;;;;;;;;;6324487;27;20206;-58
2023/05/30 16:25:55;;;;;;;4.80;3.77;;;;;;;;;;6333482;27;20248;-59
2023/05/30 16:28:56;;;;;;;5.23;4.17;;;;;;;;;;6319877;28;20228;-59
2023/05/30 16:31:57;;;;;;;3.63;3.30;;;;;;;;;;6324624;27;20252;-60
2023/05/30 16:34:58;;;;;;;3.87;3.30;;;;;;;;;;6322433;27;20289;-57